Time;durP1;ratioP1;P1;durP2;ratioP2;P2;SDS_P1;SDS_P2;PMS_P1;PMS_P2;Temp;Humidity;BMP_temperature;BMP_pressure;BME280_temperature;BME280_humidity;BME280_pressure;Samples;Min_cycle;Max_cycle;Signal;HPM_P1;HPM_P2
2022/04/24 00:01:14;;;;;;;1.98;1.87;;;8.10;87.40;;;;;;615675;233;26553;-72
2022/04/24 00:03:42;;;;;;;2.33;1.90;;;8.10;88.60;;;;;;615657;233;26562;-71
2022/04/24 00:06:09;;;;;;;1.75;1.65;;;8.10;88.90;;;;;;615649;233;27199;-71
2022/04/24 00:08:37;;;;;;;1.67;1.62;;;8.00;88.50;;;;;;615728;234;26823;-71
2022/04/24 00:11:05;;;;;;;1.52;1.50;;;7.90;89.00;;;;;;615690;233;26564;-72
2022/04/24 00:13:38;;;;;;;1.90;1.80;;;7.90;88.70;;;;;;615683;234;26585;-71
2022/04/24 00:16:00;;;;;;;1.73;1.62;;;7.90;88.50;;;;;;615260;234;26565;-72
2022/04/24 00:18:27;;;;;;;1.73;1.62;;;7.90;89.70;;;;;;615649;234;26577;-71
2022/04/24 00:20:54;;;;;;;2.00;1.90;;;7.80;89.50;;;;;;615707;234;26795;-71
2022/04/24 00:23:22;;;;;;;1.92;1.83;;;7.90;88.00;;;;;;615737;233;26564;-71
2022/04/24 00:25:49;;;;;;;1.87;1.77;;;7.80;89.00;;;;;;615619;234;26568;-71
2022/04/24 00:28:17;;;;;;;1.90;1.80;;;7.70;88.80;;;;;;616816;231;26587;-71
2022/04/24 00:30:45;;;;;;;1.80;1.70;;;7.70;88.50;;;;;;617012;233;26622;-72
2022/04/24 00:33:12;;;;;;;1.90;1.80;;;7.70;88.50;;;;;;616634;233;26826;-71
2022/04/24 00:35:39;;;;;;;2.20;2.10;;;7.70;90.80;;;;;;616541;233;26567;-71
2022/04/24 00:38:07;;;;;;;1.83;1.73;;;7.70;90.50;;;;;;616262;232;26842;-71
2022/04/24 00:40:33;;;;;;;1.87;1.77;;;7.60;91.00;;;;;;616155;233;26557;-71
2022/04/24 00:43:01;;;;;;;1.95;1.85;;;7.70;90.90;;;;;;616270;233;26547;-71
2022/04/24 00:45:29;;;;;;;2.90;2.17;;;7.60;91.40;;;;;;616183;232;26563;-71
2022/04/24 00:47:56;;;;;;;2.58;2.40;;;7.50;91.30;;;;;;615957;233;26671;-71
2022/04/24 00:50:23;;;;;;;1.80;1.70;;;7.50;90.50;;;;;;615783;233;26644;-71
2022/04/24 00:52:51;;;;;;;1.75;1.65;;;7.50;90.70;;;;;;615852;232;26839;-71
2022/04/24 00:55:18;;;;;;;2.00;1.80;;;7.40;90.70;;;;;;615710;233;26800;-71
2022/04/24 00:57:46;;;;;;;1.60;1.50;;;7.50;91.30;;;;;;615508;233;26642;-72
2022/04/24 01:00:13;;;;;;;1.80;1.70;;;7.40;91.10;;;;;;615950;232;26893;-72
2022/04/24 01:02:40;;;;;;;1.98;1.87;;;7.40;92.50;;;;;;615987;228;26595;-71
2022/04/24 01:05:08;;;;;;;1.92;1.83;;;7.40;91.40;;;;;;615653;233;26788;-71
2022/04/24 01:07:36;;;;;;;1.80;1.70;;;7.30;92.40;;;;;;615633;234;26606;-71
2022/04/24 01:10:04;;;;;;;2.33;1.80;;;7.30;92.30;;;;;;615691;233;27101;-72
2022/04/24 01:12:31;;;;;;;1.60;1.58;;;7.30;92.50;;;;;;615732;234;26589;-72
2022/04/24 01:14:58;;;;;;;2.10;2.00;;;7.20;93.20;;;;;;615616;233;26831;-71
2022/04/24 01:17:25;;;;;;;2.15;1.95;;;7.30;92.70;;;;;;615660;234;26598;-71
2022/04/24 01:19:53;;;;;;;1.92;1.83;;;7.20;93.00;;;;;;615670;233;26826;-71
2022/04/24 01:22:21;;;;;;;1.77;1.67;;;7.10;92.20;;;;;;615595;233;26564;-71
2022/04/24 01:24:48;;;;;;;2.10;2.00;;;7.10;92.20;;;;;;615642;234;26584;-71
2022/04/24 01:27:15;;;;;;;2.00;1.90;;;7.10;92.20;;;;;;615569;234;26563;-72
2022/04/24 01:29:42;;;;;;;2.90;2.10;;;7.10;93.20;;;;;;615628;234;26810;-71
2022/04/24 01:32:09;;;;;;;2.00;1.90;;;7.00;92.40;;;;;;615651;233;26560;-71
2022/04/24 01:34:37;;;;;;;2.00;1.90;;;7.00;92.50;;;;;;615543;234;26823;-71
2022/04/24 01:37:05;;;;;;;1.80;1.70;;;6.90;94.40;;;;;;615644;234;26564;-71
2022/04/24 01:39:32;;;;;;;2.42;2.00;;;6.90;94.30;;;;;;616616;231;26567;-71
2022/04/24 01:42:00;;;;;;;3.10;2.10;;;6.90;92.90;;;;;;617022;232;26802;-71
2022/04/24 01:44:28;;;;;;;4.18;2.08;;;6.90;94.50;;;;;;616636;233;26627;-68
2022/04/24 01:46:56;;;;;;;9.77;2.60;;;6.90;94.30;;;;;;616554;232;26570;-69
2022/04/24 01:49:23;;;;;;;2.85;2.10;;;6.80;93.90;;;;;;616301;233;26915;-70
2022/04/24 01:51:50;;;;;;;4.53;1.90;;;6.80;93.50;;;;;;616270;232;26568;-70
2022/04/24 01:54:17;;;;;;;2.37;2.22;;;6.80;93.80;;;;;;616173;233;26812;-69
2022/04/24 01:56:45;;;;;;;2.05;1.95;;;6.80;94.10;;;;;;616141;232;26589;-69
2022/04/24 01:59:12;;;;;;;2.33;2.10;;;6.80;94.90;;;;;;615952;232;26833;-70
2022/04/24 02:01:39;;;;;;;6.22;1.80;;;6.70;94.10;;;;;;615899;233;26607;-69
2022/04/24 02:04:06;;;;;;;1.83;1.73;;;6.70;94.10;;;;;;615875;232;26599;-69
2022/04/24 02:06:34;;;;;;;2.20;2.10;;;6.70;94.30;;;;;;615927;232;26614;-69
2022/04/24 02:09:01;;;;;;;2.65;1.90;;;6.70;94.20;;;;;;615890;227;26615;-69
2022/04/24 02:11:28;;;;;;;1.98;1.75;;;6.60;93.90;;;;;;615966;232;26603;-69
2022/04/24 02:13:56;;;;;;;2.05;1.83;;;6.60;94.40;;;;;;615874;228;26850;-69
2022/04/24 02:16:23;;;;;;;2.45;1.95;;;6.60;95.00;;;;;;615679;232;26557;-69
2022/04/24 02:18:50;;;;;;;2.92;2.03;;;6.60;95.20;;;;;;615645;234;26520;-69
2022/04/24 02:21:18;;;;;;;2.00;1.90;;;6.50;93.80;;;;;;615612;233;26583;-69
2022/04/24 02:23:46;;;;;;;2.00;1.80;;;6.50;94.10;;;;;;615683;234;26589;-69
2022/04/24 02:26:13;;;;;;;2.22;2.03;;;6.50;94.80;;;;;;615623;233;26799;-70
2022/04/24 02:28:40;;;;;;;3.25;1.60;;;6.50;95.30;;;;;;615653;234;26560;-70
2022/04/24 02:31:08;;;;;;;2.10;2.00;;;6.50;95.10;;;;;;615613;233;26596;-70
2022/04/24 02:33:36;;;;;;;2.87;1.58;;;6.50;93.90;;;;;;615603;234;26588;-70
2022/04/24 02:36:03;;;;;;;1.87;1.77;;;6.40;94.00;;;;;;615620;234;26820;-69
2022/04/24 02:38:31;;;;;;;1.95;1.85;;;6.40;94.70;;;;;;615699;234;26571;-70
2022/04/24 02:40:59;;;;;;;2.47;1.90;;;6.40;95.20;;;;;;615702;233;26549;-70
2022/04/24 02:43:27;;;;;;;1.87;1.77;;;6.40;95.10;;;;;;615603;234;26578;-70
2022/04/24 02:45:54;;;;;;;2.08;1.98;;;6.40;96.60;;;;;;615652;234;26568;-70
2022/04/24 02:48:22;;;;;;;3.37;1.90;;;6.40;95.30;;;;;;615669;234;26806;-70
2022/04/24 02:50:48;;;;;;;1.75;1.65;;;6.40;94.70;;;;;;616299;231;26573;-70
2022/04/24 02:53:15;;;;;;;5.20;2.22;;;6.40;94.60;;;;;;616974;233;26819;-70
2022/04/24 02:55:43;;;;;;;2.67;1.98;;;6.40;94.70;;;;;;616641;233;26606;-70
2022/04/24 02:58:11;;;;;;;1.90;1.80;;;6.40;93.80;;;;;;616493;233;26590;-70
2022/04/24 03:00:42;;;;;;;2.15;1.80;;;6.40;93.80;;;;;;616302;233;26564;-69
2022/04/24 03:03:07;;;;;;;2.42;1.85;;;6.40;94.10;;;;;;616001;233;26822;-69
2022/04/24 03:05:34;;;;;;;2.28;1.83;;;6.40;95.90;;;;;;616222;232;26564;-69
2022/04/24 03:08:01;;;;;;;2.40;2.00;;;6.40;95.00;;;;;;616198;233;26841;-69
2022/04/24 03:10:29;;;;;;;2.10;1.87;;;6.40;94.30;;;;;;615933;232;26628;-69
2022/04/24 03:12:56;;;;;;;2.05;1.95;;;6.40;94.60;;;;;;615904;232;26580;-69
2022/04/24 03:15:23;;;;;;;2.00;1.85;;;6.40;94.20;;;;;;615900;232;26625;-70
2022/04/24 03:17:54;;;;;;;2.62;1.90;;;6.50;96.00;;;;;;615964;233;26633;-70
2022/04/24 03:20:18;;;;;;;2.05;1.80;;;6.50;94.70;;;;;;615659;233;26829;-70
2022/04/24 03:22:45;;;;;;;2.03;1.92;;;6.40;95.70;;;;;;615971;232;26609;-70
2022/04/24 03:25:12;;;;;;;2.83;1.98;;;6.40;95.90;;;;;;615971;233;26850;-69
2022/04/24 03:27:40;;;;;;;2.03;1.90;;;6.30;94.80;;;;;;615718;233;26602;-70
2022/04/24 03:30:09;;;;;;;1.85;1.75;;;6.30;95.50;;;;;;615588;234;26607;-70
2022/04/24 03:32:36;;;;;;;2.15;1.95;;;6.30;95.50;;;;;;615684;234;26571;-70
2022/04/24 03:35:05;;;;;;;1.87;1.77;;;6.30;96.30;;;;;;615484;234;26791;-69
2022/04/24 03:37:32;;;;;;;1.98;1.87;;;6.20;95.60;;;;;;615951;234;26561;-70
2022/04/24 03:39:59;;;;;;;2.05;1.85;;;6.20;96.20;;;;;;615956;234;26529;-70
2022/04/24 03:42:27;;;;;;;1.90;1.80;;;6.10;95.80;;;;;;615739;234;26545;-70
2022/04/24 03:44:55;;;;;;;1.90;1.80;;;6.10;95.80;;;;;;615621;233;26806;-70
2022/04/24 03:47:23;;;;;;;2.12;2.03;;;6.10;95.50;;;;;;615679;234;26592;-70
2022/04/24 03:49:51;;;;;;;2.12;2.03;;;6.10;96.60;;;;;;615672;233;26566;-70
2022/04/24 03:52:18;;;;;;;2.50;2.30;;;6.10;96.60;;;;;;615624;233;26723;-71
2022/04/24 03:54:46;;;;;;;2.30;2.10;;;6.10;96.30;;;;;;615613;234;26576;-71
2022/04/24 03:57:13;;;;;;;2.20;2.00;;;6.10;97.20;;;;;;615652;233;26922;-70
2022/04/24 03:59:40;;;;;;;1.85;1.75;;;6.10;95.10;;;;;;615656;233;26578;-70
2022/04/24 04:02:07;;;;;;;2.55;2.35;;;6.10;96.80;;;;;;616200;231;26629;-70
2022/04/24 04:04:35;;;;;;;2.12;1.92;;;6.00;95.50;;;;;;617080;232;26607;-70
2022/04/24 04:07:03;;;;;;;1.90;1.80;;;6.00;97.20;;;;;;616703;232;26656;-70
2022/04/24 04:09:30;;;;;;;1.80;1.70;;;6.00;97.20;;;;;;616566;233;26547;-70
2022/04/24 04:11:58;;;;;;;2.72;1.80;;;6.00;96.30;;;;;;616348;232;27194;-70
2022/04/24 04:14:26;;;;;;;2.87;2.00;;;6.00;96.30;;;;;;616244;233;27204;-70
2022/04/24 04:16:53;;;;;;;1.80;1.70;;;6.00;97.40;;;;;;616167;232;26584;-71
2022/04/24 04:19:20;;;;;;;3.67;2.22;;;6.00;96.40;;;;;;604865;233;26578;-67
2022/04/24 04:21:48;;;;;;;2.17;1.95;;;6.00;97.50;;;;;;615954;233;26617;-67
2022/04/24 04:24:16;;;;;;;1.83;1.73;;;6.10;96.40;;;;;;615921;232;26614;-67
2022/04/24 04:26:44;;;;;;;2.00;1.90;;;6.10;96.40;;;;;;615940;232;26983;-67
2022/04/24 04:29:11;;;;;;;2.17;2.08;;;6.10;97.20;;;;;;616011;232;26624;-68
2022/04/24 04:31:38;;;;;;;1.73;1.62;;;6.10;96.40;;;;;;615948;233;26819;-67
2022/04/24 04:34:05;;;;;;;2.33;2.12;;;6.20;97.00;;;;;;615872;232;26947;-67
2022/04/24 04:36:32;;;;;;;2.20;2.00;;;6.20;95.70;;;;;;615968;232;26617;-67
2022/04/24 04:38:59;;;;;;;2.20;2.00;;;6.30;97.00;;;;;;615776;233;26820;-67
2022/04/24 04:41:27;;;;;;;2.30;2.10;;;6.40;97.20;;;;;;615624;233;26555;-67
2022/04/24 04:43:55;;;;;;;1.90;1.80;;;6.40;95.50;;;;;;615591;234;26566;-67
2022/04/24 04:46:22;;;;;;;3.20;1.90;;;6.40;95.50;;;;;;615610;234;26797;-67
2022/04/24 04:48:50;;;;;;;2.40;2.10;;;6.40;96.00;;;;;;615598;234;26549;-67
2022/04/24 04:51:17;;;;;;;2.47;1.95;;;6.40;96.70;;;;;;615626;234;26788;-67
2022/04/24 04:53:44;;;;;;;2.55;2.25;;;6.40;96.50;;;;;;615586;234;26551;-67
2022/04/24 04:56:11;;;;;;;1.87;1.77;;;6.40;96.00;;;;;;615660;234;26622;-66
2022/04/24 04:58:39;;;;;;;2.05;1.95;;;6.50;96.40;;;;;;615576;234;26573;-67
2022/04/24 05:01:08;;;;;;;2.08;1.98;;;6.50;96.40;;;;;;615507;234;26589;-67
2022/04/24 05:03:35;;;;;;;2.92;2.00;;;6.50;97.00;;;;;;615513;234;26585;-68
2022/04/24 05:06:02;;;;;;;1.90;1.80;;;6.60;95.40;;;;;;615533;234;26788;-67
2022/04/24 05:08:29;;;;;;;1.87;1.77;;;6.60;96.30;;;;;;615622;234;26591;-67
2022/04/24 05:10:57;;;;;;;2.00;1.80;;;6.70;96.60;;;;;;615619;233;26564;-66
2022/04/24 05:13:25;;;;;;;2.00;1.90;;;6.80;96.00;;;;;;615821;231;26582;-67
2022/04/24 05:15:52;;;;;;;4.10;2.00;;;6.90;95.40;;;;;;617172;233;26607;-68
2022/04/24 05:18:20;;;;;;;1.70;1.60;;;6.90;95.40;;;;;;616716;232;26855;-68
2022/04/24 05:20:47;;;;;;;2.40;2.20;;;7.00;95.30;;;;;;616532;232;26575;-68
2022/04/24 05:23:14;;;;;;;2.70;2.00;;;7.00;96.90;;;;;;616452;227;26809;-68
2022/04/24 05:25:42;;;;;;;4.03;2.17;;;7.30;95.10;;;;;;616210;232;26549;-68
2022/04/24 05:28:10;;;;;;;1.85;1.75;;;7.30;95.40;;;;;;616211;232;26601;-68
2022/04/24 05:30:37;;;;;;;2.50;2.30;;;7.30;95.40;;;;;;616261;232;26569;-68
2022/04/24 05:33:04;;;;;;;2.00;1.80;;;7.40;95.30;;;;;;616002;233;26604;-68
2022/04/24 05:35:32;;;;;;;2.05;1.95;;;7.70;94.80;;;;;;615978;233;26865;-67
2022/04/24 05:37:59;;;;;;;2.12;1.90;;;7.70;94.90;;;;;;615969;233;27255;-68
2022/04/24 05:40:27;;;;;;;2.05;1.85;;;8.20;95.60;;;;;;615875;233;26637;-67
2022/04/24 05:42:55;;;;;;;2.15;1.98;;;8.50;94.20;;;;;;615894;232;26625;-68
2022/04/24 05:45:24;;;;;;;1.75;1.65;;;8.40;94.20;;;;;;615907;233;26592;-69
2022/04/24 05:47:50;;;;;;;1.92;1.83;;;8.70;94.40;;;;;;615938;232;26637;-68
2022/04/24 05:50:17;;;;;;;1.87;1.77;;;8.90;92.50;;;;;;615814;232;26949;-67
2022/04/24 05:52:44;;;;;;;1.98;1.80;;;8.90;93.50;;;;;;615590;234;26665;-67
2022/04/24 05:55:12;;;;;;;2.00;1.90;;;8.90;93.80;;;;;;615614;233;26791;-68
2022/04/24 05:57:39;;;;;;;2.47;1.62;;;9.10;92.00;;;;;;615594;233;26568;-67
2022/04/24 06:00:09;;;;;;;1.80;1.70;;;9.10;92.10;;;;;;615591;233;26569;-67
2022/04/24 06:02:36;;;;;;;2.22;2.12;;;9.10;92.20;;;;;;615875;233;26557;-67
2022/04/24 06:05:03;;;;;;;1.80;1.70;;;9.40;93.70;;;;;;615458;232;26836;-68
2022/04/24 06:07:30;;;;;;;2.50;1.98;;;9.30;92.40;;;;;;615478;233;26591;-68
2022/04/24 06:09:58;;;;;;;1.90;1.80;;;9.20;92.30;;;;;;615489;234;26564;-68
2022/04/24 06:12:26;;;;;;;1.98;1.80;;;9.20;92.50;;;;;;615641;233;26566;-67
2022/04/24 06:14:54;;;;;;;1.98;1.87;;;9.20;91.70;;;;;;615627;233;26798;-68
2022/04/24 06:17:21;;;;;;;2.22;2.00;;;9.20;91.60;;;;;;615609;233;26833;-68
2022/04/24 06:19:48;;;;;;;2.20;1.73;;;9.30;92.80;;;;;;615640;234;26573;-68
2022/04/24 06:22:16;;;;;;;1.62;1.52;;;9.30;93.60;;;;;;615679;234;26576;-68
2022/04/24 06:24:44;;;;;;;2.22;2.03;;;9.60;92.70;;;;;;615630;234;26584;-67
2022/04/24 06:27:12;;;;;;;2.22;2.03;;;9.60;92.60;;;;;;617316;231;26631;-68
2022/04/24 06:29:39;;;;;;;2.03;1.92;;;9.70;92.80;;;;;;616809;233;26926;-69
2022/04/24 06:32:08;;;;;;;1.85;1.75;;;10.00;93.30;;;;;;616540;228;26563;-68
2022/04/24 06:34:36;;;;;;;1.90;1.80;;;10.00;91.10;;;;;;616371;233;26536;-68
2022/04/24 06:37:02;;;;;;;2.30;2.20;;;10.20;91.90;;;;;;616145;232;26591;-68
2022/04/24 06:39:30;;;;;;;2.03;1.92;;;10.30;90.30;;;;;;616167;233;26640;-68
2022/04/24 06:41:58;;;;;;;1.92;1.80;;;10.50;88.50;;;;;;616225;232;26557;-68
2022/04/24 06:44:26;;;;;;;2.03;1.85;;;10.60;90.10;;;;;;615915;233;26568;-68
2022/04/24 06:46:54;;;;;;;1.90;1.80;;;10.60;89.70;;;;;;604460;233;26600;-68
2022/04/24 06:49:22;;;;;;;2.12;1.92;;;10.60;89.90;;;;;;615967;233;26671;-68
2022/04/24 06:51:49;;;;;;;3.30;2.42;;;10.60;89.50;;;;;;615911;232;27269;-68
2022/04/24 06:54:16;;;;;;;1.70;1.60;;;10.70;89.40;;;;;;615932;233;26608;-68
2022/04/24 06:56:43;;;;;;;2.20;1.98;;;10.70;85.90;;;;;;615913;233;26830;-68
2022/04/24 06:59:10;;;;;;;2.17;1.92;;;10.70;88.00;;;;;;615983;233;26610;-68
2022/04/24 07:01:38;;;;;;;2.17;1.98;;;10.80;87.00;;;;;;615745;228;26806;-67
2022/04/24 07:04:05;;;;;;;2.12;2.03;;;11.20;87.90;;;;;;615593;233;26600;-67
2022/04/24 07:06:33;;;;;;;1.80;1.70;;;11.10;87.60;;;;;;615501;233;26588;-68
2022/04/24 07:09:01;;;;;;;1.95;1.85;;;11.10;87.90;;;;;;615616;234;26567;-67
2022/04/24 07:11:28;;;;;;;2.70;2.25;;;11.20;84.80;;;;;;615635;234;26827;-67
2022/04/24 07:13:56;;;;;;;2.40;2.10;;;11.20;88.80;;;;;;615613;233;26568;-67
2022/04/24 07:16:23;;;;;;;2.87;1.90;;;11.30;87.60;;;;;;615632;228;26844;-62
2022/04/24 07:18:51;;;;;;;2.12;2.03;;;11.40;85.80;;;;;;615650;227;26566;-63
2022/04/24 07:21:19;;;;;;;2.10;1.95;;;11.50;83.40;;;;;;615594;233;26558;-63
2022/04/24 07:23:47;;;;;;;1.90;1.77;;;11.60;82.00;;;;;;615669;233;26557;-63
2022/04/24 07:26:15;;;;;;;1.60;1.60;;;11.50;83.80;;;;;;615565;233;26572;-63
2022/04/24 07:28:43;;;;;;;1.95;1.85;;;11.70;84.80;;;;;;615641;234;26576;-63
2022/04/24 07:31:13;;;;;;;2.53;1.95;;;11.70;84.90;;;;;;615608;227;26802;-63
2022/04/24 07:33:37;;;;;;;1.80;1.70;;;11.90;83.70;;;;;;615342;232;26575;-63
2022/04/24 07:36:06;;;;;;;2.33;2.22;;;12.10;83.30;;;;;;615629;233;27267;-64
2022/04/24 07:38:33;;;;;;;2.37;2.17;;;12.10;83.10;;;;;;617233;231;26626;-64
2022/04/24 07:41:00;;;;;;;2.75;2.55;;;12.00;81.90;;;;;;616652;232;26880;-62
2022/04/24 07:43:27;;;;;;;3.30;2.28;;;12.00;83.40;;;;;;616480;233;26566;-62
2022/04/24 07:45:54;;;;;;;1.92;1.83;;;12.30;83.70;;;;;;616514;233;26767;-62
2022/04/24 07:48:21;;;;;;;2.12;1.92;;;12.30;81.60;;;;;;616311;232;26611;-63
2022/04/24 07:50:49;;;;;;;2.85;2.05;;;12.60;82.40;;;;;;616270;232;26798;-63
2022/04/24 07:53:16;;;;;;;2.20;2.00;;;13.00;79.70;;;;;;616254;232;26565;-63
2022/04/24 07:55:44;;;;;;;4.10;2.37;;;13.10;77.10;;;;;;616010;233;26557;-62
2022/04/24 07:58:12;;;;;;;1.98;1.85;;;13.40;73.50;;;;;;615877;233;26664;-63
2022/04/24 08:00:39;;;;;;;1.87;1.77;;;13.50;72.90;;;;;;615935;233;26619;-63
2022/04/24 08:03:06;;;;;;;1.98;1.87;;;13.60;71.40;;;;;;615978;232;26655;-62
2022/04/24 08:05:37;;;;;;;2.15;2.00;;;13.60;76.80;;;;;;615948;232;26605;-62
2022/04/24 08:08:07;;;;;;;2.40;2.22;;;13.30;76.10;;;;;;615062;233;26651;-64
2022/04/24 08:10:34;;;;;;;2.42;2.00;;;13.30;76.40;;;;;;615916;232;26841;-63
2022/04/24 08:13:04;;;;;;;2.67;2.47;;;13.20;72.90;;;;;;615763;233;26598;-63
2022/04/24 08:15:28;;;;;;;5.97;2.55;;;13.40;72.80;;;;;;615494;234;26852;-63
2022/04/24 08:17:56;;;;;;;2.40;2.20;;;13.70;68.80;;;;;;615695;234;26591;-63
2022/04/24 08:20:24;;;;;;;2.10;1.90;;;13.70;72.60;;;;;;615679;234;26646;-63
2022/04/24 08:22:52;;;;;;;2.30;2.10;;;13.90;67.20;;;;;;615601;233;26569;-63
2022/04/24 08:25:20;;;;;;;2.60;2.40;;;13.90;67.10;;;;;;615523;234;26553;-62
2022/04/24 08:27:48;;;;;;;2.65;2.45;;;14.60;67.90;;;;;;615643;234;26595;-62
2022/04/24 08:30:16;;;;;;;2.40;2.20;;;14.90;63.10;;;;;;615550;234;26596;-62
2022/04/24 08:32:44;;;;;;;2.90;2.70;;;15.00;65.60;;;;;;615952;233;26545;-67
2022/04/24 08:35:11;;;;;;;2.58;2.22;;;15.00;65.50;;;;;;615955;233;26581;-66
2022/04/24 08:37:39;;;;;;;5.37;2.28;;;15.00;69.70;;;;;;615990;231;26560;-66
2022/04/24 08:40:06;;;;;;;2.60;2.40;;;14.90;69.40;;;;;;615824;233;26929;-66
2022/04/24 08:42:34;;;;;;;2.60;2.40;;;14.90;68.60;;;;;;615606;233;26788;-62
2022/04/24 08:45:02;;;;;;;3.47;2.05;;;14.80;64.00;;;;;;615622;233;26561;-62
2022/04/24 08:47:30;;;;;;;2.70;2.50;;;14.80;62.80;;;;;;615957;231;26595;-63
2022/04/24 08:49:57;;;;;;;2.45;2.22;;;14.70;62.80;;;;;;617214;231;26648;-63
2022/04/24 08:52:24;;;;;;;3.45;2.20;;;14.70;64.30;;;;;;618450;230;26596;-63
2022/04/24 08:54:51;;;;;;;2.75;2.17;;;14.70;64.70;;;;;;617683;230;26805;-62
2022/04/24 08:57:19;;;;;;;3.28;2.25;;;14.80;62.60;;;;;;616830;231;26580;-62
2022/04/24 08:59:46;;;;;;;2.25;2.10;;;14.80;62.50;;;;;;616077;230;26855;-62
2022/04/24 09:02:14;;;;;;;2.28;2.00;;;14.80;63.20;;;;;;617134;231;26614;-62
2022/04/24 09:04:42;;;;;;;2.15;2.00;;;14.80;61.40;;;;;;617565;230;26602;-62
2022/04/24 09:07:10;;;;;;;2.42;2.25;;;14.90;66.40;;;;;;615655;230;26641;-62
2022/04/24 09:09:41;;;;;;;3.05;2.78;;;14.90;64.30;;;;;;616352;231;26563;-62
2022/04/24 09:12:09;;;;;;;2.75;2.15;;;14.90;64.50;;;;;;615894;228;26527;-62
2022/04/24 09:14:36;;;;;;;2.20;2.10;;;15.00;65.60;;;;;;615425;231;26832;-62
2022/04/24 09:17:06;;;;;;;3.60;3.30;;;14.90;64.80;;;;;;618571;230;26590;-62
2022/04/24 09:19:36;;;;;;;3.05;2.85;;;14.90;66.40;;;;;;615995;230;26555;-62
2022/04/24 09:22:01;;;;;;;2.25;2.08;;;14.80;64.80;;;;;;614819;231;26580;-62
2022/04/24 09:24:43;;;;;;;3.53;3.22;;;14.80;65.40;;;;;;614330;230;26613;-62
2022/04/24 09:27:11;;;;;;;2.55;2.35;;;14.80;64.70;;;;;;614474;233;26607;-62
2022/04/24 09:29:39;;;;;;;3.55;2.60;;;14.90;64.20;;;;;;615794;231;26630;-62
2022/04/24 09:32:11;;;;;;;2.60;2.40;;;14.90;64.60;;;;;;615211;231;26816;-63
2022/04/24 09:34:38;;;;;;;2.53;2.33;;;14.90;68.40;;;;;;614672;230;26568;-63
2022/04/24 09:37:06;;;;;;;6.75;4.20;;;14.90;66.10;;;;;;614262;233;26580;-62
2022/04/24 09:39:33;;;;;;;4.50;2.95;;;14.90;65.70;;;;;;618039;228;26595;-65
2022/04/24 09:42:06;;;;;;;2.75;2.55;;;14.90;69.10;;;;;;617233;231;26593;-63
2022/04/24 09:44:41;;;;;;;3.05;2.75;;;14.90;65.50;;;;;;616276;231;26539;-63
2022/04/24 09:47:08;;;;;;;12.20;4.07;;;15.00;63.20;;;;;;616722;230;26556;-62
2022/04/24 09:49:37;;;;;;;30.60;6.18;;;15.10;65.40;;;;;;618786;231;26612;-62
2022/04/24 09:52:07;;;;;;;102.75;23.30;;;15.10;63.80;;;;;;615439;231;26540;-63
2022/04/24 09:54:33;;;;;;;579.35;59.78;;;15.10;63.60;;;;;;617235;231;26946;-63
2022/04/24 09:57:00;;;;;;;107.65;24.45;;;15.20;66.60;;;;;;614252;233;26589;-64
2022/04/24 09:59:29;;;;;;;40.65;9.50;;;15.20;66.60;;;;;;615141;231;26801;-64
2022/04/24 10:01:57;;;;;;;15.13;6.30;;;15.30;64.10;;;;;;620939;226;26639;-64
2022/04/24 10:04:24;;;;;;;35.67;10.15;;;15.30;64.00;;;;;;616236;231;26563;-64
2022/04/24 10:06:51;;;;;;;40.72;8.50;;;15.40;68.40;;;;;;617157;231;26802;-64
2022/04/24 10:09:18;;;;;;;5.85;2.67;;;15.40;64.60;;;;;;618166;230;26555;-64
2022/04/24 10:11:46;;;;;;;28.70;7.80;;;15.40;62.70;;;;;;614951;231;27204;-64
2022/04/24 10:14:13;;;;;;;8.20;4.43;;;15.50;62.90;;;;;;616397;230;26615;-63
2022/04/24 10:16:49;;;;;;;15.43;5.25;;;15.50;64.00;;;;;;616536;230;26864;-64
2022/04/24 10:19:20;;;;;;;8.70;3.62;;;15.50;64.90;;;;;;615827;230;26625;-63
2022/04/24 10:21:51;;;;;;;7.37;4.32;;;15.50;65.40;;;;;;615837;230;26586;-62
2022/04/24 10:24:18;;;;;;;3.10;2.65;;;15.70;67.40;;;;;;616620;231;26775;-63
2022/04/24 10:26:55;;;;;;;8.27;4.18;;;16.00;64.70;;;;;;617793;230;26583;-63
2022/04/24 10:29:22;;;;;;;7.40;4.22;;;16.00;64.90;;;;;;616548;230;26802;-63
2022/04/24 10:31:49;;;;;;;4.97;2.87;;;16.00;63.20;;;;;;615890;230;26563;-63
2022/04/24 10:34:18;;;;;;;3.50;2.70;;;16.20;62.60;;;;;;615310;231;26811;-66
2022/04/24 10:36:55;;;;;;;7.30;4.07;;;16.40;60.70;;;;;;613197;231;26586;-63
2022/04/24 10:39:21;;;;;;;5.35;3.40;;;16.40;60.70;;;;;;613426;230;26683;-63
2022/04/24 10:41:55;;;;;;;3.17;2.30;;;16.70;63.50;;;;;;617443;231;26802;-65
2022/04/24 10:44:23;;;;;;;2.70;2.50;;;17.40;59.60;;;;;;615804;234;26547;-62
2022/04/24 10:46:53;;;;;;;3.55;2.67;;;17.60;60.80;;;;;;615810;233;26583;-63
2022/04/24 10:49:18;;;;;;;2.87;2.67;;;17.60;60.30;;;;;;615620;234;26543;-62
2022/04/24 10:51:46;;;;;;;2.83;2.47;;;17.80;60.80;;;;;;615836;233;26541;-62
2022/04/24 10:54:13;;;;;;;3.05;2.72;;;17.80;59.50;;;;;;614253;234;26533;-62
2022/04/24 10:56:41;;;;;;;6.40;3.35;;;17.80;60.30;;;;;;615814;234;26608;-64
2022/04/24 10:59:10;;;;;;;4.72;3.30;;;17.70;58.30;;;;;;615820;233;26541;-63
2022/04/24 11:01:37;;;;;;;4.32;2.95;;;17.90;61.10;;;;;;615723;234;26537;-64
2022/04/24 11:04:04;;;;;;;3.15;2.40;;;17.80;59.90;;;;;;616039;228;26815;-64
2022/04/24 11:06:32;;;;;;;2.83;2.50;;;18.10;57.40;;;;;;616016;234;26552;-64
2022/04/24 11:09:06;;;;;;;2.67;2.47;;;18.10;57.40;;;;;;616019;233;26529;-63
2022/04/24 11:11:34;;;;;;;4.10;3.03;;;18.10;57.50;;;;;;616449;231;26851;-64
2022/04/24 11:14:01;;;;;;;2.62;2.30;;;17.80;57.90;;;;;;617486;232;26575;-63
2022/04/24 11:16:28;;;;;;;2.95;2.62;;;17.90;59.00;;;;;;617108;232;26624;-65
2022/04/24 11:18:56;;;;;;;2.70;2.50;;;18.00;56.10;;;;;;616889;232;26591;-64
2022/04/24 11:21:23;;;;;;;2.87;2.60;;;18.10;57.10;;;;;;616731;233;26568;-64
2022/04/24 11:23:50;;;;;;;5.50;2.72;;;18.30;58.20;;;;;;616574;232;26524;-63
2022/04/24 11:26:18;;;;;;;4.65;3.12;;;18.10;58.70;;;;;;615579;233;26580;-63
2022/04/24 11:28:46;;;;;;;2.58;2.37;;;18.10;59.10;;;;;;616109;233;26547;-64
2022/04/24 11:31:13;;;;;;;2.47;2.28;;;17.80;57.90;;;;;;615832;233;26615;-63
2022/04/24 11:33:51;;;;;;;3.40;2.78;;;17.80;57.90;;;;;;615635;233;26693;-64
2022/04/24 11:36:18;;;;;;;3.33;2.62;;;17.80;58.30;;;;;;615821;233;26826;-64
2022/04/24 11:38:46;;;;;;;2.62;2.42;;;18.00;57.20;;;;;;615841;233;26855;-64
2022/04/24 11:41:14;;;;;;;3.72;2.92;;;18.10;56.70;;;;;;615957;232;26617;-64
2022/04/24 11:43:40;;;;;;;2.62;2.42;;;18.40;55.80;;;;;;615984;232;26856;-64
2022/04/24 11:51:13;;;;;;;3.45;2.95;;;18.40;55.10;;;;;;615656;233;26580;-64
2022/04/24 11:53:41;;;;;;;5.07;2.90;;;19.20;53.30;;;;;;615669;233;26574;-63
2022/04/24 11:56:09;;;;;;;3.90;2.47;;;19.50;56.80;;;;;;615669;233;26616;-63
2022/04/24 11:58:37;;;;;;;4.22;2.78;;;19.50;56.50;;;;;;615710;233;26786;-64
2022/04/24 12:01:04;;;;;;;4.22;2.70;;;19.40;55.50;;;;;;615716;233;26764;-64
2022/04/24 12:03:32;;;;;;;3.53;2.78;;;19.20;54.60;;;;;;615701;234;26556;-64
2022/04/24 12:05:59;;;;;;;3.22;2.65;;;19.10;52.00;;;;;;615739;232;26556;-63
2022/04/24 12:08:26;;;;;;;5.15;2.62;;;19.10;54.80;;;;;;615710;233;26584;-63
2022/04/24 12:10:55;;;;;;;3.08;2.70;;;19.40;54.40;;;;;;614775;234;26567;-63
2022/04/24 12:13:23;;;;;;;3.87;2.85;;;19.50;52.90;;;;;;615747;234;26568;-64
2022/04/24 12:15:52;;;;;;;4.70;2.55;;;19.20;55.00;;;;;;615707;233;26851;-64
2022/04/24 12:18:20;;;;;;;2.65;2.45;;;19.20;54.60;;;;;;615606;234;26799;-64
2022/04/24 12:20:49;;;;;;;2.78;2.60;;;19.10;53.10;;;;;;615655;234;26780;-63
2022/04/24 12:23:15;;;;;;;3.92;2.58;;;18.90;55.50;;;;;;604961;233;26576;-63
2022/04/24 12:25:51;;;;;;;2.70;2.50;;;18.90;56.40;;;;;;617117;232;26616;-63
2022/04/24 12:28:27;;;;;;;2.40;2.20;;;18.90;53.00;;;;;;616683;232;26907;-63
2022/04/24 12:30:54;;;;;;;5.20;2.83;;;19.00;55.40;;;;;;616486;232;26571;-64
2022/04/24 12:33:21;;;;;;;3.87;2.75;;;18.90;52.20;;;;;;616285;232;26532;-63
2022/04/24 12:35:49;;;;;;;5.50;2.70;;;19.10;52.60;;;;;;616176;232;26576;-64
2022/04/24 12:38:16;;;;;;;3.72;2.90;;;19.20;53.90;;;;;;616182;232;26810;-63
2022/04/24 12:40:52;;;;;;;5.03;2.78;;;19.20;53.50;;;;;;616162;232;26813;-62
2022/04/24 12:43:27;;;;;;;4.85;2.83;;;19.50;52.90;;;;;;615904;232;26622;-62
2022/04/24 12:45:55;;;;;;;3.25;2.30;;;19.90;52.10;;;;;;615843;232;26846;-62
2022/04/24 12:48:22;;;;;;;4.00;2.50;;;20.30;51.90;;;;;;616244;227;26617;-62
2022/04/24 12:50:50;;;;;;;4.40;2.22;;;20.20;51.90;;;;;;616219;232;26862;-62
2022/04/24 12:53:15;;;;;;;4.68;3.10;;;20.50;52.80;;;;;;616279;233;26564;-62
2022/04/24 12:55:43;;;;;;;4.75;2.95;;;20.80;52.50;;;;;;616260;232;26828;-62
2022/04/24 12:58:14;;;;;;;31.73;6.00;;;21.00;52.20;;;;;;616314;232;26608;-62